Time;durP1;ratioP1;P1;durP2;ratioP2;P2;SDS_P1;SDS_P2;PMS_P1;PMS_P2;Temp;Humidity;BMP_temperature;BMP_pressure;BME280_temperature;BME280_humidity;BME280_pressure;Samples;Min_cycle;Max_cycle;Signal;HPM_P1;HPM_P2
2024/01/30 00:00:59;;;;;;;15.20;7.32;;;;;;;0.15;69.30;101106.34;4785649;29;20058;-67
2024/01/30 00:03:25;;;;;;;15.60;7.50;;;;;;;0.18;68.58;101103.94;4791048;29;20054;-68
2024/01/30 00:05:52;;;;;;;15.05;6.88;;;;;;;0.25;68.49;101105.16;4784641;29;20060;-69
2024/01/30 00:08:18;;;;;;;16.23;7.40;;;;;;;0.25;68.88;101094.91;4801273;29;20048;-68
2024/01/30 00:10:44;;;;;;;14.15;7.30;;;;;;;0.19;68.55;101086.91;4815614;29;20057;-69
2024/01/30 00:13:10;;;;;;;14.05;6.55;;;;;;;0.09;68.97;101078.72;4816999;29;20049;-69
2024/01/30 00:15:36;;;;;;;13.38;6.60;;;;;;;0.09;68.57;101094.09;4785621;29;20058;-69
2024/01/30 00:18:05;;;;;;;13.20;6.25;;;;;;;-0.04;68.65;101066.94;4800310;29;20529;-67
2024/01/30 00:20:31;;;;;;;12.55;5.53;;;;;;;0.11;68.53;101094.19;4800298;29;20046;-68
2024/01/30 00:22:57;;;;;;;12.85;5.80;;;;;;;0.09;68.82;101098.34;4807336;29;20050;-68
2024/01/30 00:25:23;;;;;;;13.32;6.13;;;;;;;0.24;69.23;101111.97;4798743;29;20049;-68
2024/01/30 00:27:48;;;;;;;13.75;6.25;;;;;;;0.26;68.37;101099.22;4799625;29;20070;-67
2024/01/30 00:30:14;;;;;;;15.10;7.07;;;;;;;0.22;68.80;101099.91;4804944;29;20046;-68
2024/01/30 00:32:40;;;;;;;13.75;6.60;;;;;;;-0.05;69.27;101052.38;4815632;29;20099;-68
2024/01/30 00:35:06;;;;;;;14.05;6.85;;;;;;;0.27;68.79;101093.31;4815227;29;20062;-67
2024/01/30 00:37:32;;;;;;;17.38;7.63;;;;;;;0.23;68.55;101074.34;4798757;29;20046;-67
2024/01/30 00:39:58;;;;;;;17.38;6.78;;;;;;;0.22;69.13;101070.03;4815859;29;20732;-68
2024/01/30 00:42:25;;;;;;;16.33;7.57;;;;;;;0.36;68.47;101092.91;4801767;29;20432;-69
2024/01/30 00:44:50;;;;;;;16.10;7.63;;;;;;;0.33;68.65;101088.53;4792787;29;20046;-68
2024/01/30 00:47:16;;;;;;;10.63;6.22;;;;;;;0.31;69.12;101069.63;4784443;29;20048;-68
2024/01/30 00:49:42;;;;;;;13.60;6.22;;;;;;;0.39;69.13;101073.50;4802060;29;20394;-68
2024/01/30 00:52:08;;;;;;;17.15;7.40;;;;;;;0.30;69.08;101062.75;4800249;29;20046;-68
2024/01/30 00:54:34;;;;;;;16.80;7.38;;;;;;;0.33;68.92;101062.91;4795450;29;20076;-66
2024/01/30 00:57:00;;;;;;;15.82;6.95;;;;;;;0.36;69.03;101072.44;4799470;29;20074;-66
2024/01/30 00:59:26;;;;;;;13.63;7.15;;;;;;;0.41;68.81;101076.13;4798806;29;20046;-67
2024/01/30 01:01:52;;;;;;;17.58;7.95;;;;;;;0.49;68.71;101073.97;4815235;29;20049;-67
2024/01/30 01:04:18;;;;;;;15.13;7.00;;;;;;;0.40;69.35;101064.13;4794052;29;20046;-66
2024/01/30 01:06:44;;;;;;;15.40;6.82;;;;;;;0.47;68.64;101068.78;4815892;29;20086;-67
2024/01/30 01:09:12;;;;;;;14.63;7.55;;;;;;;0.39;68.58;101054.66;4799833;29;20136;-66
2024/01/30 01:11:38;;;;;;;13.75;6.93;;;;;;;0.51;68.39;101074.94;4795620;29;20050;-68
2024/01/30 01:14:05;;;;;;;12.18;6.57;;;;;;;0.41;68.10;101066.78;4769578;29;20045;-68
2024/01/30 01:16:30;;;;;;;15.65;6.72;;;;;;;0.54;68.59;101075.09;4791649;29;20169;-67
2024/01/30 01:18:56;;;;;;;17.95;7.05;;;;;;;0.59;68.76;101065.97;4797970;29;20819;-68
2024/01/30 01:21:23;;;;;;;18.92;8.38;;;;;;;0.65;68.60;101074.00;4795271;29;20092;-67
2024/01/30 01:23:51;;;;;;;19.85;9.10;;;;;;;0.74;69.03;101071.00;4815851;29;20050;-66
2024/01/30 01:26:17;;;;;;;16.92;8.25;;;;;;;0.72;68.31;101059.81;4798036;29;20082;-67
2024/01/30 01:28:43;;;;;;;16.55;8.05;;;;;;;0.69;68.26;101059.63;4800716;29;20045;-67
2024/01/30 01:31:09;;;;;;;15.23;7.57;;;;;;;0.71;68.77;101055.47;4802910;29;20053;-67
2024/01/30 01:33:36;;;;;;;15.13;7.72;;;;;;;0.80;68.37;101076.44;4810378;29;20057;-66
2024/01/30 01:36:03;;;;;;;14.18;6.72;;;;;;;0.67;68.36;101053.56;4787458;29;20489;-67
2024/01/30 01:38:29;;;;;;;14.48;7.53;;;;;;;0.70;68.46;101059.69;4803213;29;20099;-67
2024/01/30 01:40:55;;;;;;;12.23;6.35;;;;;;;0.67;68.45;101058.69;4818583;29;20051;-67
2024/01/30 01:43:21;;;;;;;14.55;7.38;;;;;;;0.65;67.81;101061.19;4795757;29;20102;-67
2024/01/30 01:45:47;;;;;;;16.73;6.57;;;;;;;0.53;68.24;101030.69;4802319;29;20039;-67
2024/01/30 01:48:14;;;;;;;13.60;7.22;;;;;;;0.62;68.32;101042.19;4802399;29;20051;-67
2024/01/30 01:50:40;;;;;;;15.50;6.88;;;;;;;0.72;68.17;101057.25;4801704;29;20073;-67
2024/01/30 01:53:08;;;;;;;14.82;6.93;;;;;;;0.71;68.12;101034.97;4819898;29;20046;-68
2024/01/30 01:55:35;;;;;;;13.68;6.97;;;;;;;0.72;68.26;101040.16;4817513;29;20149;-67
2024/01/30 01:58:02;;;;;;;14.27;6.53;;;;;;;0.63;68.40;101026.91;4818377;29;20165;-68
2024/01/30 02:00:28;;;;;;;13.63;6.97;;;;;;;0.63;68.47;101043.94;4787447;29;20140;-67
2024/01/30 02:02:55;;;;;;;12.00;6.53;;;;;;;0.57;68.33;101029.16;4797579;29;20080;-66
2024/01/30 02:05:22;;;;;;;15.40;7.35;;;;;;;0.56;68.00;101015.44;4819080;29;20074;-66
2024/01/30 02:07:48;;;;;;;12.43;6.78;;;;;;;0.61;67.96;101036.19;4802959;29;20075;-67
2024/01/30 02:10:14;;;;;;;14.48;6.30;;;;;;;0.52;68.67;101022.91;4801887;29;20049;-68
2024/01/30 02:12:40;;;;;;;14.82;7.82;;;;;;;0.66;68.79;101028.72;4772183;29;20042;-67
2024/01/30 02:15:07;;;;;;;14.32;6.90;;;;;;;0.72;68.73;101026.50;4816577;29;20038;-68
2024/01/30 02:17:39;;;;;;;12.80;7.30;;;;;;;0.69;68.84;101024.63;4802766;29;20057;-67
2024/01/30 02:20:06;;;;;;;13.40;6.82;;;;;;;0.80;69.09;101032.88;4818548;29;20053;-67
2024/01/30 02:22:36;;;;;;;13.40;6.88;;;;;;;0.82;68.22;101025.28;4802703;29;20500;-66
2024/01/30 02:25:02;;;;;;;13.68;6.85;;;;;;;0.73;68.13;101000.94;4818156;29;20108;-67
2024/01/30 02:27:29;;;;;;;12.75;6.18;;;;;;;0.76;68.70;101002.78;4802146;29;20052;-67
2024/01/30 02:29:55;;;;;;;13.45;6.47;;;;;;;0.90;67.98;101019.72;4817385;29;20525;-66
2024/01/30 02:32:21;;;;;;;12.75;6.95;;;;;;;0.90;68.34;101029.97;4798181;29;20102;-67
2024/01/30 02:34:47;;;;;;;12.35;6.85;;;;;;;0.91;68.63;101028.28;4786240;29;20426;-69
2024/01/30 02:37:14;;;;;;;11.95;5.90;;;;;;;0.87;68.56;101022.13;4801892;29;20754;-67
2024/01/30 02:39:40;;;;;;;13.50;6.43;;;;;;;0.95;68.63;101025.06;4800117;29;20489;-67
2024/01/30 02:42:06;;;;;;;10.73;6.13;;;;;;;1.02;68.45;101031.38;4797789;29;20120;-66
2024/01/30 02:44:35;;;;;;;9.77;5.57;;;;;;;1.04;68.61;101040.03;4818284;29;20058;-67
2024/01/30 02:47:01;;;;;;;12.23;6.07;;;;;;;1.11;68.63;101029.28;4818239;29;20495;-68
2024/01/30 02:49:27;;;;;;;13.93;6.32;;;;;;;1.22;68.17;101029.81;4786311;29;20430;-67
2024/01/30 02:51:55;;;;;;;11.13;5.55;;;;;;;1.24;68.32;101019.59;4787800;29;20086;-66
2024/01/30 02:54:20;;;;;;;11.25;6.35;;;;;;;1.14;68.43;101005.47;4817989;29;20501;-66
2024/01/30 02:56:48;;;;;;;10.60;5.88;;;;;;;1.26;68.37;101015.44;4811024;29;20046;-67
2024/01/30 02:59:14;;;;;;;11.65;5.63;;;;;;;1.24;68.01;101023.06;4817618;29;20150;-68
2024/01/30 03:01:44;;;;;;;10.35;5.47;;;;;;;1.22;68.01;101023.78;4800913;29;20054;-69
2024/01/30 03:04:11;;;;;;;13.10;5.93;;;;;;;1.28;67.86;101016.38;4801360;29;20490;-69
2024/01/30 03:06:37;;;;;;;12.35;5.97;;;;;;;1.29;68.21;101026.75;4815891;29;20053;-71
2024/01/30 03:09:04;;;;;;;10.55;5.63;;;;;;;1.40;68.24;101029.81;4786390;29;20046;-68
2024/01/30 03:11:31;;;;;;;10.60;5.72;;;;;;;1.34;67.97;100981.66;4801162;29;20137;-69
2024/01/30 03:13:57;;;;;;;12.77;5.95;;;;;;;1.54;68.22;101017.66;4800930;29;20042;-69
2024/01/30 03:16:25;;;;;;;12.10;5.68;;;;;;;1.42;68.11;101011.94;4801244;29;20057;-69
2024/01/30 03:18:51;;;;;;;11.30;5.80;;;;;;;1.52;67.75;101023.50;4801094;29;20141;-70
2024/01/30 03:21:17;;;;;;;11.95;6.45;;;;;;;1.61;67.73;101042.78;4800650;29;20111;-68
2024/01/30 03:23:43;;;;;;;12.13;6.05;;;;;;;1.57;67.45;101027.19;4801469;29;20034;-68
2024/01/30 03:26:10;;;;;;;9.80;5.78;;;;;;;1.66;67.87;101043.00;4817438;29;20050;-68
2024/01/30 03:28:39;;;;;;;12.25;5.93;;;;;;;1.54;67.62;101025.34;4809369;29;20138;-69
2024/01/30 03:31:06;;;;;;;11.85;5.95;;;;;;;1.69;68.11;101038.00;4795290;29;20050;-67
2024/01/30 03:33:32;;;;;;;12.88;6.25;;;;;;;1.71;67.65;101021.00;4779656;29;20085;-69
2024/01/30 03:36:03;;;;;;;9.88;5.45;;;;;;;1.86;67.40;101040.50;4797711;29;20103;-70
2024/01/30 03:38:29;;;;;;;12.98;6.35;;;;;;;1.89;68.19;101030.34;4801253;29;20460;-69
2024/01/30 03:40:55;;;;;;;11.27;5.93;;;;;;;1.84;67.87;101021.59;4816804;29;20511;-69
2024/01/30 03:43:21;;;;;;;12.82;5.40;;;;;;;2.03;67.53;101049.84;4812641;29;20122;-68
2024/01/30 03:45:54;;;;;;;11.75;6.72;;;;;;;2.11;67.30;101047.63;4816717;29;20100;-69
2024/01/30 03:48:21;;;;;;;11.38;5.95;;;;;;;2.05;67.15;101027.69;4799950;29;20065;-70
2024/01/30 03:50:47;;;;;;;10.70;5.65;;;;;;;1.99;67.15;101022.28;4785070;29;20050;-69
2024/01/30 03:53:13;;;;;;;10.68;6.35;;;;;;;1.95;67.31;101008.44;4783950;29;20052;-69
2024/01/30 03:55:39;;;;;;;13.60;5.88;;;;;;;2.07;67.22;101028.66;4799480;29;20086;-68
2024/01/30 03:58:05;;;;;;;11.95;6.35;;;;;;;2.05;67.38;101014.88;4785457;29;20062;-68
2024/01/30 04:00:30;;;;;;;14.30;6.90;;;;;;;2.08;67.13;101007.31;4784902;29;20056;-69
2024/01/30 04:02:56;;;;;;;11.40;6.30;;;;;;;2.24;67.39;101038.78;4792440;29;20061;-69
2024/01/30 04:05:23;;;;;;;11.18;6.22;;;;;;;2.19;66.98;101032.56;4784542;29;20042;-69
2024/01/30 04:07:48;;;;;;;12.25;6.78;;;;;;;2.27;67.37;101046.66;4800240;29;20112;-66
2024/01/30 04:10:15;;;;;;;11.60;6.80;;;;;;;2.19;66.91;101032.56;4784730;29;20537;-65
2024/01/30 04:12:40;;;;;;;11.77;6.60;;;;;;;2.20;67.04;101037.78;4770026;29;20057;-65
2024/01/30 04:15:07;;;;;;;11.00;6.00;;;;;;;2.28;67.14;101038.13;4805943;29;20046;-65
2024/01/30 04:17:33;;;;;;;10.95;5.80;;;;;;;2.35;66.66;101045.28;4784271;29;20076;-67
2024/01/30 04:19:59;;;;;;;10.80;5.97;;;;;;;2.36;67.07;101054.75;4811250;29;20410;-68
2024/01/30 04:22:25;;;;;;;10.65;5.82;;;;;;;2.38;67.02;101049.69;4785642;29;20054;-67
2024/01/30 04:24:51;;;;;;;12.30;6.38;;;;;;;2.21;66.55;101015.53;4799439;29;20122;-68
2024/01/30 04:27:17;;;;;;;10.13;5.82;;;;;;;2.31;66.92;101025.44;4799404;29;20043;-69
2024/01/30 04:29:43;;;;;;;10.02;5.90;;;;;;;2.43;66.83;101053.31;4815850;29;20107;-69
2024/01/30 04:32:12;;;;;;;11.80;6.40;;;;;;;2.46;66.89;101056.03;4800831;29;21554;-66
2024/01/30 04:34:38;;;;;;;10.88;6.40;;;;;;;2.42;66.34;101041.31;4815012;29;20058;-66
2024/01/30 04:37:04;;;;;;;11.00;6.03;;;;;;;2.39;66.81;101029.19;4815304;29;20042;-65
2024/01/30 04:39:32;;;;;;;10.88;6.05;;;;;;;2.41;66.38;101019.00;4784402;29;20046;-66
2024/01/30 04:41:59;;;;;;;10.82;6.25;;;;;;;2.52;66.20;101035.75;4798851;29;20074;-67
2024/01/30 04:44:25;;;;;;;11.48;6.13;;;;;;;2.55;66.30;101029.84;4785587;29;20052;-68
2024/01/30 04:46:51;;;;;;;13.85;6.38;;;;;;;2.56;66.01;101037.66;4807582;29;20049;-65
2024/01/30 04:49:17;;;;;;;11.90;5.80;;;;;;;2.53;65.88;101042.66;4816017;29;20122;-70
2024/01/30 04:51:43;;;;;;;10.07;6.00;;;;;;;2.49;66.37;101034.75;4785637;29;20046;-67
2024/01/30 04:54:09;;;;;;;12.27;5.90;;;;;;;2.39;65.98;101018.91;4793649;29;20038;-68
2024/01/30 04:56:35;;;;;;;10.40;5.53;;;;;;;2.32;66.26;100995.47;4799439;29;20101;-67
2024/01/30 04:59:02;;;;;;;10.13;6.20;;;;;;;2.58;66.29;101027.44;4799848;29;20048;-67
2024/01/30 05:01:28;;;;;;;12.48;5.65;;;;;;;2.66;65.85;101044.06;4799258;29;20073;-69
2024/01/30 05:03:54;;;;;;;9.80;5.80;;;;;;;2.58;66.16;101044.56;4783567;29;20050;-69
2024/01/30 05:06:27;;;;;;;12.98;6.28;;;;;;;2.57;66.26;101051.38;4811568;29;20409;-67
2024/01/30 05:08:53;;;;;;;10.30;6.18;;;;;;;2.59;65.89;101056.59;4779955;29;20074;-69
2024/01/30 05:11:19;;;;;;;8.98;5.63;;;;;;;2.59;66.46;101042.03;4799242;29;20057;-66
2024/01/30 05:13:45;;;;;;;10.77;6.10;;;;;;;2.63;65.90;101049.06;4816475;29;20137;-68
2024/01/30 05:16:12;;;;;;;12.48;5.85;;;;;;;2.66;65.90;101048.31;4790165;29;20070;-67
2024/01/30 05:18:38;;;;;;;10.40;5.75;;;;;;;2.66;66.23;101044.06;4815312;29;20489;-68
2024/01/30 05:21:05;;;;;;;9.65;5.95;;;;;;;2.59;65.98;101021.47;4799931;29;20105;-70
2024/01/30 05:23:31;;;;;;;9.32;5.95;;;;;;;2.68;65.94;101037.31;4799337;29;20042;-68
2024/01/30 05:26:00;;;;;;;10.75;5.90;;;;;;;2.73;65.90;101034.91;4798981;29;20691;-70
2024/01/30 05:28:29;;;;;;;10.07;6.20;;;;;;;2.86;66.17;101047.50;4797594;29;20049;-69
2024/01/30 05:30:56;;;;;;;10.80;5.90;;;;;;;2.64;66.04;101030.25;4818729;29;20512;-69
2024/01/30 05:33:22;;;;;;;10.57;5.82;;;;;;;2.84;66.15;101055.94;4780271;29;20528;-69
2024/01/30 05:35:48;;;;;;;10.18;5.57;;;;;;;2.75;65.65;101042.72;4783107;29;20066;-68
2024/01/30 05:38:16;;;;;;;8.93;5.53;;;;;;;2.80;66.21;101044.66;4784072;29;20080;-68
2024/01/30 05:40:42;;;;;;;11.27;5.65;;;;;;;2.81;65.89;101042.97;4798939;29;20050;-69
2024/01/30 05:43:08;;;;;;;11.07;5.57;;;;;;;2.90;65.49;101056.22;4807366;29;20042;-68
2024/01/30 05:45:37;;;;;;;10.00;5.88;;;;;;;2.82;65.25;101027.63;4783338;29;20051;-67
2024/01/30 05:48:04;;;;;;;12.70;5.88;;;;;;;2.90;65.64;101037.31;4790206;29;20038;-67
2024/01/30 05:50:30;;;;;;;10.40;5.90;;;;;;;3.05;65.72;101053.41;4798848;29;20049;-69
2024/01/30 05:52:56;;;;;;;9.40;5.70;;;;;;;3.01;65.78;101038.66;4798472;29;20615;-68
2024/01/30 05:55:24;;;;;;;12.48;5.93;;;;;;;2.89;65.39;101025.28;4784099;29;20169;-67
2024/01/30 05:57:52;;;;;;;11.63;5.88;;;;;;;3.05;65.33;101060.25;4778747;29;20039;-67
2024/01/30 06:00:18;;;;;;;10.50;6.05;;;;;;;3.05;65.54;101057.66;4783166;29;20046;-66
2024/01/30 06:02:44;;;;;;;13.25;6.47;;;;;;;3.09;65.76;101072.41;4815827;29;20046;-67
2024/01/30 06:05:10;;;;;;;10.23;5.90;;;;;;;3.02;65.12;101061.00;4815247;29;20038;-69
2024/01/30 06:07:36;;;;;;;11.45;6.18;;;;;;;2.92;65.74;101046.88;4806800;29;20042;-68
2024/01/30 06:10:02;;;;;;;9.25;5.25;;;;;;;3.01;65.62;101067.81;4809113;29;20076;-68
2024/01/30 06:12:30;;;;;;;10.35;5.97;;;;;;;3.07;65.75;101074.94;4798797;29;20576;-68
2024/01/30 06:14:56;;;;;;;10.45;6.00;;;;;;;3.04;65.70;101086.78;4815805;29;20158;-68
2024/01/30 06:17:23;;;;;;;11.38;6.63;;;;;;;3.09;65.37;101083.56;4802673;29;20053;-68
2024/01/30 06:19:49;;;;;;;11.43;5.85;;;;;;;3.16;65.76;101083.03;4786536;29;20050;-70
2024/01/30 06:22:16;;;;;;;13.85;6.35;;;;;;;3.21;65.43;101074.63;4801481;29;20429;-70
2024/01/30 06:24:44;;;;;;;12.32;6.35;;;;;;;3.29;65.43;101080.97;4804372;29;20050;-67
2024/01/30 06:27:11;;;;;;;13.27;6.53;;;;;;;3.25;65.54;101066.22;4801645;29;20042;-70
2024/01/30 06:29:36;;;;;;;12.40;6.72;;;;;;;3.34;65.04;101086.31;4809312;29;20498;-68
2024/01/30 06:32:03;;;;;;;11.27;6.38;;;;;;;3.30;65.11;101086.19;4818095;29;20078;-68
2024/01/30 06:34:29;;;;;;;11.57;5.85;;;;;;;3.31;65.25;101084.50;4817751;29;20086;-68
2024/01/30 06:36:55;;;;;;;11.85;6.55;;;;;;;3.26;65.49;101071.41;4798130;29;20080;-69
2024/01/30 06:39:21;;;;;;;15.63;7.05;;;;;;;3.38;64.62;101085.63;4813308;29;20077;-68
2024/01/30 06:41:47;;;;;;;8.90;5.65;;;;;;;3.40;64.85;101091.72;4801733;29;20049;-68
2024/01/30 06:44:13;;;;;;;11.23;5.68;;;;;;;3.40;65.16;101091.72;4813570;29;20046;-68
2024/01/30 06:46:39;;;;;;;13.43;6.00;;;;;;;3.44;65.68;101098.72;4800795;29;20108;-69
2024/01/30 06:49:05;;;;;;;10.20;6.30;;;;;;;3.37;65.20;101084.72;4801631;29;20089;-67
2024/01/30 06:51:31;;;;;;;12.23;6.18;;;;;;;3.55;65.14;101104.31;4800765;29;20042;-68
2024/01/30 06:53:57;;;;;;;12.68;6.35;;;;;;;3.64;65.55;101101.25;4808317;29;20402;-68
2024/01/30 06:56:23;;;;;;;10.73;6.22;;;;;;;3.70;65.15;101093.75;4801339;29;20046;-68
2024/01/30 06:58:52;;;;;;;12.82;6.90;;;;;;;3.70;64.82;101086.91;4801998;29;20391;-67
2024/01/30 07:01:18;;;;;;;11.98;6.35;;;;;;;3.74;64.65;101087.91;4782926;29;20042;-68
2024/01/30 07:03:43;;;;;;;12.32;6.65;;;;;;;3.71;64.29;101077.47;4811207;29;20057;-69
2024/01/30 07:06:10;;;;;;;12.93;6.68;;;;;;;3.81;65.07;101091.59;4808766;29;20132;-69
2024/01/30 07:08:40;;;;;;;13.60;7.38;;;;;;;3.95;65.11;101102.44;4801232;29;20050;-68
2024/01/30 07:11:06;;;;;;;13.75;6.57;;;;;;;3.91;64.61;101098.88;4801045;29;20399;-66
2024/01/30 07:13:32;;;;;;;12.68;6.30;;;;;;;3.96;64.84;101106.78;4786300;29;20046;-67
2024/01/30 07:15:58;;;;;;;14.18;6.95;;;;;;;4.03;64.37;101116.50;4816670;29;20121;-68
2024/01/30 07:18:24;;;;;;;13.25;6.95;;;;;;;3.91;63.96;101097.16;4797383;29;20463;-68
2024/01/30 07:20:50;;;;;;;12.75;6.30;;;;;;;3.91;63.57;101106.63;4809758;29;20046;-68
2024/01/30 07:23:17;;;;;;;13.52;7.18;;;;;;;3.94;64.54;101113.56;4817774;29;20612;-67
2024/01/30 07:25:44;;;;;;;12.98;7.28;;;;;;;3.91;64.23;101102.31;4815840;29;20102;-69
2024/01/30 07:28:12;;;;;;;13.60;6.22;;;;;;;3.96;64.20;101114.50;4817681;29;20095;-68
2024/01/30 07:30:38;;;;;;;14.07;7.22;;;;;;;4.00;64.21;101137.84;4800598;29;20114;-68
2024/01/30 07:33:04;;;;;;;12.77;6.32;;;;;;;3.90;64.31;101108.28;4810887;29;20530;-67
2024/01/30 07:35:30;;;;;;;14.70;7.15;;;;;;;3.98;64.02;101133.47;4817332;29;20489;-68
2024/01/30 07:37:57;;;;;;;12.68;6.85;;;;;;;3.99;64.68;101101.75;4817016;29;20584;-66
2024/01/30 07:40:23;;;;;;;12.60;7.18;;;;;;;4.04;63.83;101107.97;4815756;29;20118;-68
2024/01/30 07:42:50;;;;;;;13.98;6.47;;;;;;;4.09;64.40;101102.97;4800220;29;20062;-69
2024/01/30 07:45:16;;;;;;;15.30;6.78;;;;;;;4.18;64.07;101124.81;4799741;29;20038;-68
2024/01/30 07:47:42;;;;;;;13.70;7.10;;;;;;;4.20;63.64;101119.72;4780665;29;20050;-68
2024/01/30 07:50:09;;;;;;;11.90;6.68;;;;;;;4.31;63.88;101121.03;4785859;29;20045;-68
2024/01/30 07:52:35;;;;;;;13.35;6.72;;;;;;;4.33;63.88;101121.06;4799863;29;20522;-68
2024/01/30 07:55:10;;;;;;;11.80;6.60;;;;;;;4.32;63.43;101114.16;4817541;29;20566;-68
2024/01/30 07:57:39;;;;;;;14.13;6.97;;;;;;;4.31;63.99;101108.13;4798000;29;20042;-69
2024/01/30 08:00:07;;;;;;;14.95;6.70;;;;;;;4.29;63.86;101098.59;4798501;29;20046;-69
2024/01/30 08:02:35;;;;;;;12.40;6.68;;;;;;;4.36;63.28;101110.88;4784496;29;20062;-69
2024/01/30 08:05:02;;;;;;;13.35;6.63;;;;;;;4.37;63.80;101117.78;4815426;29;20049;-69
2024/01/30 08:07:30;;;;;;;12.32;7.07;;;;;;;4.44;63.59;101113.72;4798269;29;20042;-68
2024/01/30 08:09:56;;;;;;;11.55;6.80;;;;;;;4.60;63.30;101113.50;4799621;29;20046;-69
2024/01/30 08:12:22;;;;;;;12.98;6.97;;;;;;;4.61;63.47;101109.22;4817022;29;20060;-70
2024/01/30 08:14:48;;;;;;;16.48;7.22;;;;;;;4.60;63.35;101110.03;4800887;29;20413;-70
2024/01/30 08:17:14;;;;;;;11.23;6.40;;;;;;;4.54;63.07;101100.38;4784804;29;20054;-68
2024/01/30 08:19:40;;;;;;;9.60;6.30;;;;;;;4.60;63.31;101095.44;4816481;29;20061;-68
2024/01/30 08:22:06;;;;;;;13.38;6.88;;;;;;;4.72;62.94;101118.22;4785126;29;20141;-71
2024/01/30 08:24:32;;;;;;;11.23;6.32;;;;;;;4.81;63.12;101115.97;4800189;29;20536;-69
2024/01/30 08:26:58;;;;;;;12.85;7.15;;;;;;;4.85;62.64;101113.50;4798621;29;20133;-69
2024/01/30 08:29:24;;;;;;;13.55;6.93;;;;;;;4.80;62.41;101115.91;4800021;29;20053;-67
2024/01/30 08:31:50;;;;;;;14.18;7.40;;;;;;;4.79;63.12;101093.53;4799070;29;20046;-69
2024/01/30 08:34:16;;;;;;;13.05;6.80;;;;;;;4.86;62.83;101104.94;4799072;29;20058;-70
2024/01/30 08:36:42;;;;;;;11.55;6.70;;;;;;;4.81;62.77;101108.22;4816476;29;20038;-69
2024/01/30 08:39:08;;;;;;;14.95;7.35;;;;;;;4.71;62.57;101093.25;4784426;29;20425;-69
2024/01/30 08:41:34;;;;;;;13.18;6.80;;;;;;;4.75;62.88;101100.25;4784296;29;20054;-70
2024/01/30 08:44:00;;;;;;;13.65;7.13;;;;;;;4.78;62.36;101090.06;4816548;29;20038;-69
2024/01/30 08:46:26;;;;;;;12.48;6.53;;;;;;;4.80;62.44;101080.66;4799459;29;20050;-69
2024/01/30 08:48:53;;;;;;;13.48;6.72;;;;;;;5.02;62.66;101112.38;4799790;29;20051;-71
2024/01/30 08:51:19;;;;;;;12.40;7.13;;;;;;;4.92;62.16;101110.31;4788914;29;20046;-70
2024/01/30 08:53:45;;;;;;;17.73;7.25;;;;;;;4.70;61.32;101090.59;4816870;29;20506;-71
2024/01/30 08:56:11;;;;;;;14.77;7.35;;;;;;;4.64;61.27;101096.44;4799589;29;20038;-69
2024/01/30 08:58:37;;;;;;;12.90;7.18;;;;;;;4.53;62.16;101089.16;4795556;29;20038;-69
2024/01/30 09:01:05;;;;;;;14.13;6.50;;;;;;;4.67;62.20;101101.69;4799229;29;20046;-70
2024/01/30 09:03:31;;;;;;;15.73;7.28;;;;;;;4.66;62.47;101092.22;4816281;29;20490;-71
2024/01/30 09:05:57;;;;;;;13.25;7.05;;;;;;;4.67;62.76;101101.69;4799318;29;20482;-70
2024/01/30 09:08:23;;;;;;;15.23;7.30;;;;;;;4.64;62.35;101093.84;4799165;29;20081;-68
2024/01/30 09:10:49;;;;;;;14.93;6.80;;;;;;;4.66;61.96;101097.38;4799529;29;20038;-68
2024/01/30 09:13:16;;;;;;;11.05;6.68;;;;;;;4.32;61.99;101048.03;4784240;29;20047;-69
2024/01/30 09:15:42;;;;;;;15.20;7.03;;;;;;;4.62;62.39;101087.75;4816208;29;20537;-68
2024/01/30 09:18:07;;;;;;;13.65;7.45;;;;;;;4.45;61.71;101070.00;4800231;29;20053;-67
2024/01/30 09:20:33;;;;;;;14.35;6.97;;;;;;;4.75;61.90;101099.41;4799203;29;20811;-69
2024/01/30 09:22:59;;;;;;;13.70;7.70;;;;;;;4.77;61.95;101090.88;4815797;29;20049;-71
2024/01/30 09:25:25;;;;;;;15.35;7.00;;;;;;;4.85;62.25;101104.06;4816305;29;20043;-69
2024/01/30 09:27:51;;;;;;;13.50;7.47;;;;;;;4.93;61.56;101106.91;4799202;29;20050;-68
2024/01/30 09:30:17;;;;;;;12.63;6.63;;;;;;;4.86;61.62;101103.22;4804036;29;20049;-68
2024/01/30 09:32:43;;;;;;;15.30;7.00;;;;;;;4.98;61.31;101115.66;4791134;29;20095;-69
2024/01/30 09:35:09;;;;;;;14.88;7.40;;;;;;;5.04;61.67;101121.06;4815391;29;20050;-69
2024/01/30 09:37:35;;;;;;;14.68;7.68;;;;;;;5.09;61.44;101116.94;4815738;29;20700;-69
2024/01/30 09:40:01;;;;;;;14.40;7.00;;;;;;;4.73;61.30;101057.19;4797881;29;20685;-72
2024/01/30 09:42:37;;;;;;;14.18;7.13;;;;;;;5.12;61.70;101122.22;4795184;29;20059;-69
2024/01/30 09:45:05;;;;;;;13.98;6.97;;;;;;;5.04;61.64;101086.66;4797716;29;20577;-69
2024/01/30 09:47:44;;;;;;;12.52;7.05;;;;;;;5.15;61.50;101092.19;4784225;29;20099;-69
2024/01/30 09:50:15;;;;;;;16.52;7.22;;;;;;;5.20;61.51;101086.34;4795656;29;20133;-69
2024/01/30 09:52:42;;;;;;;14.23;7.20;;;;;;;5.32;61.44;101083.28;4802163;29;20139;-69
2024/01/30 09:55:09;;;;;;;12.18;6.45;;;;;;;5.37;61.29;101104.97;4785130;29;20102;-69
2024/01/30 09:57:35;;;;;;;15.05;7.57;;;;;;;5.17;60.87;101070.75;4802804;29;20151;-68
2024/01/30 10:00:03;;;;;;;13.30;6.75;;;;;;;5.29;60.63;101085.75;4818477;29;20515;-69
2024/01/30 10:02:39;;;;;;;11.55;6.72;;;;;;;5.29;60.88;101085.75;4812370;29;20054;-70
2024/01/30 10:05:06;;;;;;;14.38;7.47;;;;;;;5.14;61.16;101075.78;4797197;29;20042;-69
2024/01/30 10:07:32;;;;;;;16.67;7.20;;;;;;;5.21;61.47;101092.34;4786649;29;20042;-69
2024/01/30 10:09:58;;;;;;;14.73;7.40;;;;;;;5.18;61.13;101095.72;4786620;29;20100;-69
2024/01/30 10:12:26;;;;;;;14.88;6.63;;;;;;;5.06;61.44;101069.53;4819055;29;20038;-69
2024/01/30 10:14:53;;;;;;;15.05;6.68;;;;;;;5.18;61.32;101094.88;4818709;29;20039;-69
2024/01/30 10:17:21;;;;;;;12.32;7.35;;;;;;;5.21;60.89;101089.78;4802116;29;20050;-68
2024/01/30 10:19:47;;;;;;;13.15;7.40;;;;;;;5.24;61.17;101095.06;4801672;29;20510;-68
2024/01/30 10:22:14;;;;;;;12.52;7.18;;;;;;;5.28;60.69;101102.06;4818832;29;20050;-69
2024/01/30 10:24:40;;;;;;;11.98;6.82;;;;;;;5.15;60.87;101093.03;4801711;29;20058;-72
2024/01/30 10:27:06;;;;;;;17.42;8.15;;;;;;;5.17;60.96;101098.28;4802802;29;20524;-67
2024/01/30 10:29:33;;;;;;;12.43;7.05;;;;;;;5.17;61.41;101108.59;4796304;29;20050;-69
2024/01/30 10:32:00;;;;;;;17.35;6.43;;;;;;;5.18;61.28;101112.94;4817574;29;20105;-68
2024/01/30 10:34:26;;;;;;;15.65;7.25;;;;;;;5.08;60.71;101107.44;4801805;29;20066;-69
2024/01/30 10:37:06;;;;;;;14.27;7.35;;;;;;;5.04;60.70;101100.41;4787287;29;20087;-68
2024/01/30 10:39:38;;;;;;;13.60;7.18;;;;;;;5.13;61.22;101105.00;4818775;29;20042;-70
2024/01/30 10:42:05;;;;;;;15.65;7.63;;;;;;;5.21;61.50;101108.75;4817532;29;20053;-69
2024/01/30 10:44:59;;;;;;;14.45;7.47;;;;;;;5.19;61.58;101105.22;4802062;29;20042;-68
2024/01/30 10:47:29;;;;;;;18.65;8.80;;;;;;;5.22;60.67;101104.44;4798216;29;20046;-68
2024/01/30 10:49:56;;;;;;;15.90;8.02;;;;;;;5.21;61.14;101097.53;4818225;29;20176;-68
2024/01/30 10:52:25;;;;;;;17.13;7.60;;;;;;;5.15;60.99;101079.28;4804743;29;20046;-68
2024/01/30 10:54:53;;;;;;;15.60;8.30;;;;;;;5.21;61.37;101089.78;4783563;29;20069;-70
2024/01/30 10:57:22;;;;;;;20.42;8.98;;;;;;;5.15;61.00;101084.44;4816941;29;20050;-69
2024/01/30 10:59:49;;;;;;;16.23;7.68;;;;;;;5.22;61.46;101102.75;4785020;29;20473;-68
2024/01/30 11:02:16;;;;;;;15.90;8.05;;;;;;;5.24;60.77;101102.78;4801088;29;20046;-68
2024/01/30 11:04:41;;;;;;;16.98;7.93;;;;;;;5.13;61.57;101097.25;4811784;29;20616;-69
2024/01/30 11:07:17;;;;;;;13.65;7.47;;;;;;;5.16;61.28;101099.97;4817879;29;20038;-68
2024/01/30 11:09:54;;;;;;;13.55;7.50;;;;;;;5.17;61.56;101087.94;4801165;29;20471;-68
2024/01/30 11:12:24;;;;;;;12.85;7.20;;;;;;;5.26;60.85;101107.19;4801280;29;20152;-69
2024/01/30 11:15:04;;;;;;;16.30;7.93;;;;;;;5.15;61.38;101095.63;4812084;29;20532;-69
2024/01/30 11:17:44;;;;;;;23.38;8.18;;;;;;;5.17;61.35;101099.13;4817302;29;20062;-68
2024/01/30 11:20:21;;;;;;;13.63;7.75;;;;;;;5.20;61.33;101093.19;4795810;29;20168;-69
2024/01/30 11:22:53;;;;;;;17.58;8.15;;;;;;;5.26;61.28;101094.28;4801786;29;20097;-69
2024/01/30 11:25:24;;;;;;;18.02;8.25;;;;;;;5.25;60.72;101112.28;4785909;29;20042;-69